Tuesday, October 21, 2014
21:36 UTC
  |  Log In   |  Register Free
Airport Search:

Williamsburg-Jamestown Airport
(KJGG)

Williamsburg-Jamestown Airport Diagram
No Airport Diagram Available

FAA data valid effective September 18, 2014 - November 13, 2014 (unless otherwise noted).

 
 
 
 
 
 
 
 
 
 
 
 
 
 

Current Aviation Weather for Williamsburg-Jamestown Airport (KJGG)

The most recent METAR observation for KJGG was updated at: 2115
METAR Summary (Translated METAR)
KJGG
212055Z AUTO 00000KT 10SM CLR 23/12 A2981 RMK AO1
KFAF
212058Z AUTO VRB02KT 10SM CLR 22/10 A2979 RMK AO2 SLP091 T02150098 55005 $
(8.2 nm SE from KJGG)
KPHF
212054Z 23004KT 10SM CLR 23/10 A2981 RMK AO2 SLP093 T02330100 55006
(12.5 nm SE from KJGG)
TAF Summary (Translated TAF)
KFAF
(8.2 nm SE from KJGG)
2118/2224 24009KT 9999 SCT040 SCT050 BKN100 QNH2980INS BECMG 2201/2202 28009KT 8000 -SHRA BKN010 OVC050 QNH2984INS BECMG 2213/2214 29012KT 8000 -SHRA OVC020 610604 QNH2987INS BECMG 2220/2221 30015G25KT 8000 -SHRA BKN010 OVC050 QNH2988INS TX22/2121Z TN12/2209Z LAST NO AMDS AFT 2203 NEXT 2210
KPHF
(12.5 nm SE from KJGG)
211743Z 2118/2218 25006KT P6SM SCT100 BKN250 FM220300 32004KT P6SM BKN040 FM220900 32007KT P6SM BKN015 FM221500 32010G15KT P6SM BKN020
  Airport Weather Conditions for KJGG

 Current Weather at JGG
73° F
Fair
North winds at 0.0 mph
JGG NOAA Radar

Pressure: 29.81 in
Humidity: 50%
Wind: Calm
Dew Point: 53.6°F
Visibility: 10.00 mi


Airport Weather Forecast for KJGG

Translated METAR and TAF for KJGG
Translated METAR for KJGG (2131 UTC 21 October 2014)
found at http://aviationweather.gov/adds/metars/
 
METAR text: KJGG 212115Z AUTO 00000KT 10SM CLR 22/13 A2982 RMK AO1
Conditions at: KJGG (WILLIAMSBURG , VA, US) observed 2115 UTC 21 October 2014
Temperature: 22.0°C (72°F)
Dewpoint: 13.0°C (55°F) [RH = 57%]
Pressure (altimeter): 29.82 inches Hg (1009.9 mb)
Winds: calm
Visibility: 10 or more miles (16+ km)
Ceiling: at least 12,000 feet AGL
Clouds: sky clear below 12,000 feet AGL
Weather: automated observation with no human augmentation;
there may or may not be significant weather present at this time
Translated TAF for KJGG

There is no translated TAF available for this airport

Find All Airport Services Find A Hotel Find A Rental Car Find A Golf Course Find A Restaurant $100 Hamburger



FBO's on the Field
FBO Company Facility Photos Services Transportation Aviation Fuel Prices: Prices include tax
Catering Weather Repair Courtesy Rental Type 100LL JetA JetA+ MOGAS 8087
 
Williamsburg-Jamestown

This FBO has not yet been rated
FS:Shell
Last Updated: Sep-18
Login to update fuel prices
SS:
Contact Williamsburg-JamestownMore FBO Information
 
Add another FBO Facility Photos Catering Weather Repair Courtesy Rental Type 100LL JetA JetA+ MOGAS 8087
Services Transportation Aviation Fuel Prices: Prices include tax


model-print
model-print
model-print
model-print